createdAt,value
2022-09-15T00:02:11.468Z,80.72
2022-09-15T00:06:23.075Z,81.01
2022-09-15T00:10:34.730Z,81.08
2022-09-15T00:14:46.198Z,81.12
2022-09-15T00:18:58.636Z,81.27
2022-09-15T00:23:13.188Z,81.56
2022-09-15T00:27:24.687Z,81.68
2022-09-15T00:31:36.210Z,81.68
2022-09-15T00:35:52.597Z,81.96
2022-09-15T00:40:04.712Z,81.97
2022-09-15T00:44:16.220Z,81.91
2022-09-15T00:48:27.734Z,82.18
2022-09-15T00:52:47.753Z,82.43
2022-09-15T00:57:04.761Z,82.27
2022-09-15T01:01:16.889Z,82.86
2022-09-15T01:05:33.018Z,82.78
2022-09-15T01:09:51.901Z,82.68
2022-09-15T01:14:04.141Z,83.20
2022-09-15T01:18:15.535Z,83.14
2022-09-15T01:22:55.333Z,82.75
2022-09-15T01:27:41.448Z,82.78
2022-09-15T01:32:21.614Z,82.78
2022-09-15T01:36:55.604Z,82.48
2022-09-15T01:41:15.522Z,82.46
2022-09-15T01:45:32.165Z,82.51
2022-09-15T01:49:54.581Z,82.81
2022-09-15T01:54:06.772Z,82.86
2022-09-15T01:58:18.261Z,83.01
2022-09-15T02:02:36.092Z,82.68
2022-09-15T02:06:55.501Z,83.12
2022-09-15T02:11:13.742Z,83.02
2022-09-15T02:15:33.345Z,83.22
2022-09-15T02:19:53.417Z,83.22
2022-09-15T02:24:11.948Z,83.33
2022-09-15T02:28:28.667Z,83.08
2022-09-15T02:32:49.723Z,82.73
2022-09-15T02:37:02.183Z,83.09
2022-09-15T02:41:14.210Z,83.09
2022-09-15T02:45:26.866Z,83.09
2022-09-15T02:49:38.475Z,82.91
2022-09-15T02:53:50.078Z,83.07
2022-09-15T02:58:01.880Z,83.36
2022-09-15T03:02:13.987Z,83.98
2022-09-15T03:06:27.936Z,83.86
2022-09-15T03:10:39.689Z,84.41
2022-09-15T03:14:51.217Z,84.34
2022-09-15T03:19:03.890Z,84.50
2022-09-15T03:23:15.405Z,84.38
2022-09-15T03:27:27.445Z,84.24
2022-09-15T03:31:39.027Z,84.05
2022-09-15T03:35:51.944Z,83.75
2022-09-15T03:40:04.289Z,84.06
2022-09-15T03:44:15.870Z,83.95
2022-09-15T03:48:28.505Z,84.27
2022-09-15T03:52:40.041Z,84.52
2022-09-15T03:56:52.054Z,84.42
2022-09-15T04:01:04.002Z,84.33
2022-09-15T04:05:15.889Z,84.43
2022-09-15T04:09:27.690Z,84.31
2022-09-15T04:13:40.727Z,84.36
2022-09-15T04:17:52.305Z,84.25
2022-09-15T04:22:03.923Z,84.00
2022-09-15T04:26:21.754Z,84.09
2022-09-15T04:30:33.292Z,83.99
2022-09-15T04:34:44.870Z,83.60
2022-09-15T04:38:56.734Z,84.00
2022-09-15T04:43:08.352Z,83.84
2022-09-15T04:47:19.917Z,83.65
2022-09-15T04:51:31.543Z,83.74
2022-09-15T04:55:43.095Z,83.51
2022-09-15T04:59:54.657Z,83.46
2022-09-15T05:04:06.190Z,83.25
2022-09-15T05:08:17.736Z,83.36
2022-09-15T05:12:29.344Z,82.97
2022-09-15T05:16:40.960Z,83.01
2022-09-15T05:20:58.472Z,82.95
2022-09-15T05:25:10.413Z,82.86
2022-09-15T05:29:21.994Z,82.89
2022-09-15T05:33:34.405Z,82.62
2022-09-15T05:37:46.004Z,82.60
2022-09-15T05:41:57.634Z,82.54
2022-09-15T05:46:10.356Z,82.41
2022-09-15T05:50:21.969Z,82.46
2022-09-15T05:54:33.589Z,82.14
2022-09-15T05:58:46.762Z,82.19
2022-09-15T06:02:58.383Z,82.00
2022-09-15T06:07:09.970Z,81.85
2022-09-15T06:11:24.307Z,81.84
2022-09-15T06:15:35.889Z,81.50
2022-09-15T06:19:47.467Z,81.33
2022-09-15T06:24:01.269Z,81.12
2022-09-15T06:28:12.828Z,81.18
2022-09-15T06:32:24.474Z,81.08
2022-09-15T06:36:37.695Z,80.90
2022-09-15T06:40:59.330Z,80.09
2022-09-15T06:45:11.010Z,79.70
2022-09-15T06:49:22.586Z,79.16
2022-09-15T06:53:36.113Z,78.65
2022-09-15T06:57:47.685Z,78.13
2022-09-15T07:02:04.106Z,77.99
2022-09-15T07:06:17.113Z,77.32
2022-09-15T07:10:28.768Z,77.15
2022-09-15T07:14:40.301Z,77.00
2022-09-15T07:18:55.067Z,76.33
2022-09-15T07:23:06.567Z,75.55
2022-09-15T07:27:18.172Z,75.15
2022-09-15T07:31:33.507Z,74.52
2022-09-15T07:35:45.473Z,74.21
2022-09-15T07:39:57.037Z,73.04
2022-09-15T07:44:11.561Z,72.90
2022-09-15T07:48:26.367Z,72.26
2022-09-15T07:52:38.451Z,71.24
2022-09-15T07:56:50.048Z,69.33
2022-09-15T08:01:06.957Z,68.28
2022-09-15T08:05:18.542Z,66.85
2022-09-15T08:09:30.211Z,66.51
2022-09-15T08:13:41.739Z,66.13
2022-09-15T08:17:53.479Z,65.79
2022-09-15T08:22:05.623Z,66.35
2022-09-15T08:26:17.324Z,66.77
2022-09-15T08:30:28.982Z,66.11
2022-09-15T08:34:40.531Z,66.35
2022-09-15T08:38:52.250Z,65.48
2022-09-15T08:43:13.098Z,65.24
2022-09-15T08:47:29.569Z,64.92
2022-09-15T08:51:46.388Z,64.17
2022-09-15T08:56:09.354Z,64.06
2022-09-15T09:00:21.482Z,64.16
2022-09-15T09:04:46.293Z,63.93
2022-09-15T09:09:06.901Z,63.55
2022-09-15T09:13:34.686Z,62.62
2022-09-15T09:18:08.315Z,60.23
2022-09-15T09:22:35.749Z,60.25
2022-09-15T09:26:53.218Z,58.05
2022-09-15T09:31:07.884Z,58.16
2022-09-15T09:35:32.111Z,56.13
2022-09-15T09:39:43.696Z,55.92
2022-09-15T09:43:56.378Z,55.76
2022-09-15T09:48:23.536Z,56.59
2022-09-15T09:52:39.391Z,56.64
2022-09-15T09:56:52.690Z,57.54
2022-09-15T10:01:16.851Z,57.46
2022-09-15T10:05:28.577Z,57.24
2022-09-15T10:09:47.509Z,56.58
2022-09-15T10:13:59.142Z,55.95
2022-09-15T10:18:31.869Z,55.55
2022-09-15T10:22:43.836Z,55.13
2022-09-15T10:27:17.180Z,55.31
2022-09-15T10:31:32.156Z,55.36
2022-09-15T10:35:44.441Z,54.22
2022-09-15T10:40:00.257Z,54.05
2022-09-15T10:44:52.438Z,54.73
2022-09-15T10:49:20.553Z,55.34
2022-09-15T10:53:57.162Z,56.40
2022-09-15T10:58:28.744Z,56.85
2022-09-15T11:02:48.150Z,56.84
2022-09-15T11:07:24.381Z,56.62
2022-09-15T11:12:05.826Z,55.55
2022-09-15T11:16:33.389Z,54.60
2022-09-15T11:20:51.036Z,54.44
2022-09-15T11:25:12.867Z,53.95
2022-09-15T11:29:24.361Z,53.83
2022-09-15T11:33:47.643Z,53.77
2022-09-15T11:38:20.886Z,54.03
2022-09-15T11:42:48.929Z,53.59
2022-09-15T11:47:18.720Z,52.44
2022-09-15T11:51:37.752Z,51.43
2022-09-15T11:55:55.230Z,49.85
2022-09-15T12:00:13.390Z,49.94
2022-09-15T12:04:47.768Z,50.23
2022-09-15T12:09:02.225Z,49.52
2022-09-15T12:13:19.726Z,46.80
2022-09-15T12:17:40.454Z,45.69
2022-09-15T12:22:06.609Z,45.26
2022-09-15T12:26:20.762Z,45.49
2022-09-15T12:30:41.243Z,45.85
2022-09-15T12:35:03.742Z,46.42
2022-09-15T12:39:39.866Z,47.01
2022-09-15T12:44:01.212Z,47.23
2022-09-15T12:48:20.379Z,47.82
2022-09-15T12:52:41.653Z,48.21
2022-09-15T12:56:54.792Z,46.54
2022-09-15T13:01:18.801Z,45.28
2022-09-15T13:05:52.410Z,44.33
2022-09-15T13:10:12.856Z,43.03
2022-09-15T13:14:35.501Z,42.28
2022-09-15T13:18:47.454Z,42.54
2022-09-15T13:22:59.909Z,41.40
2022-09-15T13:27:13.301Z,41.77
2022-09-15T13:31:57.229Z,43.91
2022-09-15T13:41:34.108Z,47.17
2022-09-15T13:45:57.786Z,48.15
2022-09-15T13:50:35.330Z,48.97
2022-09-15T13:55:10.077Z,48.91
2022-09-15T13:59:27.197Z,48.05
2022-09-15T14:03:38.994Z,48.27
2022-09-15T14:07:59.191Z,48.82
2022-09-15T14:12:15.009Z,48.96
2022-09-15T14:16:26.523Z,48.58
2022-09-15T14:20:38.104Z,48.55
2022-09-15T14:24:51.138Z,48.45
2022-09-15T14:29:05.904Z,47.96
2022-09-15T14:33:18.014Z,47.60
2022-09-15T14:37:34.546Z,48.13
2022-09-15T14:41:47.227Z,48.32
2022-09-15T14:46:12.144Z,48.49
2022-09-15T14:50:23.730Z,48.61
2022-09-15T14:54:37.677Z,48.62
2022-09-15T14:59:03.366Z,48.98
2022-09-15T15:03:30.725Z,49.48
2022-09-15T15:07:43.455Z,50.11
2022-09-15T15:12:00.502Z,50.53
2022-09-15T15:16:49.761Z,50.28
2022-09-15T15:21:01.455Z,48.62
2022-09-15T15:25:28.290Z,48.60
2022-09-15T15:29:48.258Z,48.29
2022-09-15T15:34:05.466Z,48.90
2022-09-15T15:38:19.472Z,49.66
2022-09-15T15:42:31.101Z,50.05
2022-09-15T15:46:56.688Z,50.51
2022-09-15T15:51:09.373Z,50.88
2022-09-15T15:55:23.609Z,51.02
2022-09-15T15:59:35.170Z,51.30
2022-09-15T16:03:46.731Z,51.71
2022-09-15T16:08:03.865Z,52.61
2022-09-15T16:12:16.564Z,53.35
2022-09-15T16:16:29.277Z,53.66
2022-09-15T16:20:42.201Z,53.99
2022-09-15T16:24:55.126Z,54.47
2022-09-15T16:29:06.726Z,54.63
2022-09-15T16:33:18.874Z,54.70
2022-09-15T16:37:30.475Z,54.84
2022-09-15T16:41:42.180Z,55.84
2022-09-15T16:45:54.176Z,55.91
2022-09-15T16:50:05.869Z,55.98
2022-09-15T16:54:20.215Z,55.41
2022-09-15T16:58:31.981Z,55.15
2022-09-15T17:02:43.609Z,55.19
2022-09-15T17:06:55.219Z,54.86
2022-09-15T17:11:16.224Z,54.78
2022-09-15T17:15:37.676Z,54.73
2022-09-15T17:19:49.282Z,54.74
2022-09-15T17:24:00.910Z,54.93
2022-09-15T17:28:12.517Z,55.85
2022-09-15T17:32:24.064Z,56.41
2022-09-15T17:36:37.266Z,56.92
2022-09-15T17:40:50.022Z,57.65
2022-09-15T17:45:01.557Z,57.88
2022-09-15T17:49:13.450Z,58.16
2022-09-15T17:53:28.926Z,58.30
2022-09-15T17:57:40.676Z,58.73
2022-09-15T18:01:52.357Z,58.64
2022-09-15T18:06:08.705Z,58.91
2022-09-15T18:10:21.599Z,59.10
2022-09-15T18:14:33.627Z,59.55
2022-09-15T18:18:45.311Z,60.09
2022-09-15T18:22:57.211Z,60.13
2022-09-15T18:27:08.844Z,60.76
2022-09-15T18:31:20.495Z,61.18
2022-09-15T18:35:32.131Z,61.28
2022-09-15T18:39:43.786Z,61.98
2022-09-15T18:43:55.399Z,62.30
2022-09-15T18:48:12.015Z,62.37
2022-09-15T18:52:24.682Z,62.82
2022-09-15T18:56:36.289Z,63.26
2022-09-15T19:00:49.049Z,63.90
2022-09-15T19:05:00.785Z,64.03
2022-09-15T19:09:12.389Z,65.10
2022-09-15T19:13:24.042Z,66.07
2022-09-15T19:17:35.934Z,67.58
2022-09-15T19:21:47.496Z,67.89
2022-09-15T19:26:02.498Z,68.46
2022-09-15T19:30:14.452Z,69.46
2022-09-15T19:34:26.013Z,69.78
2022-09-15T19:38:38.193Z,70.35
2022-09-15T19:42:50.318Z,70.84
2022-09-15T19:47:01.982Z,70.48
2022-09-15T19:51:14.618Z,70.88
2022-09-15T19:55:26.984Z,70.65
2022-09-15T19:59:38.734Z,70.20
2022-09-15T20:03:53.411Z,70.29
2022-09-15T20:08:05.116Z,69.98
2022-09-15T20:12:16.821Z,70.14
2022-09-15T20:16:29.788Z,70.30
2022-09-15T20:20:41.431Z,70.17
2022-09-15T20:24:53.158Z,70.25
2022-09-15T20:29:05.345Z,70.59
2022-09-15T20:33:16.947Z,71.06
2022-09-15T20:37:28.594Z,70.55
2022-09-15T20:41:41.855Z,71.33
2022-09-15T20:45:57.335Z,71.56
2022-09-15T20:50:09.102Z,72.61
2022-09-15T20:54:20.802Z,72.18
2022-09-15T20:58:36.705Z,73.49
2022-09-15T21:02:51.939Z,73.49
2022-09-15T21:07:03.575Z,73.33
2022-09-15T21:11:16.734Z,73.41
2022-09-15T21:15:28.278Z,73.78
2022-09-15T21:19:40.240Z,73.99
2022-09-15T21:23:58.676Z,74.21
2022-09-15T21:28:10.215Z,75.13
2022-09-15T21:32:21.741Z,75.11
2022-09-15T21:36:33.940Z,75.86
2022-09-15T21:40:49.770Z,75.60
2022-09-15T21:45:01.737Z,75.80
2022-09-15T21:49:13.872Z,75.91
2022-09-15T21:53:26.318Z,75.86
2022-09-15T21:57:37.911Z,75.47
2022-09-15T22:01:49.670Z,75.90
2022-09-15T22:06:01.831Z,75.91
2022-09-15T22:10:13.435Z,76.27
2022-09-15T22:14:25.011Z,76.06
2022-09-15T22:18:38.368Z,76.93
2022-09-15T22:22:50.206Z,77.51
2022-09-15T22:27:01.734Z,77.37
2022-09-15T22:31:15.258Z,76.76
2022-09-15T22:35:27.423Z,76.51
2022-09-15T22:39:58.096Z,76.77
2022-09-15T22:44:18.689Z,77.05
2022-09-15T22:48:30.283Z,77.00
2022-09-15T22:52:41.836Z,77.58
2022-09-15T22:56:53.482Z,77.70
2022-09-15T23:01:06.339Z,77.97
2022-09-15T23:05:18.070Z,78.16
2022-09-15T23:09:29.649Z,78.14
2022-09-15T23:13:41.497Z,78.13
2022-09-15T23:17:53.098Z,78.25
2022-09-15T23:22:04.632Z,78.41
2022-09-15T23:26:18.549Z,78.38
2022-09-15T23:30:30.129Z,78.47
2022-09-15T23:34:41.692Z,78.06
2022-09-15T23:38:53.379Z,78.21
2022-09-15T23:43:04.960Z,78.14
2022-09-15T23:47:16.894Z,77.99
2022-09-15T23:51:28.413Z,77.77
2022-09-15T23:55:40.156Z,78.10
2022-09-15T23:59:52.278Z,78.17
